Pagina principale
METAR-TAF:

METAR-TAF

Aeroporti :

Talladega, Alabama, Stati Uniti

latitudine: 33-34-10N, longitudine: 086-03-04W, altezza: 160 m

Osservazione

Il bollettino è stato emesso 23 minuti fa, alle 21:15 UTC
Vento 7 kt da sud
Temperature 11°C
Umidità 40%
Pressione 1022 hPa
Visibilità: 16.1 km
Cielo sereno

METAR: KASN 122115Z AUTO 19007KT 10SM CLR 11/M02 A3017 RMK AO2 T01111020

Ora: 15:38 (21:38 UTC)

Previsione

Il bollettino è stato emesso 3 ore e 59 minuti fa, alle 17:39 UTC
Previsione valida dal 12 alle 18 UTC al 13 alle 18 UTC
Vento 8 kt da sud-ovest
Visibilità: 10 km
Cielo coperto ad un'altezza di 25000 ft
A partire da 13 alle 0000 UTC
Vento kt da nord
Visibilità: 10 km
Cielo coperto ad un'altezza di 25000 ft
A partire da 13 alle 1500 UTC
Vento 8 kt da est
Visibilità: 10 km
Cielo coperto ad un'altezza di 5000 ft

TAF: KASN 121739Z 1218/1318 22008KT P6SM OVC250 FM130000 00000KT P6SM OVC250 FM131500 10008KT P6SM OVC050

Osservazioni e previsioni meteorologiche di più di 4000 aeroporti (messaggi METAR e TAF).

Le stazioni disponibili sono rappresentate dai dischi gialli e rossi sulla carta.

Puntare il mouse per vedere il nome della stazione.

Clicca sopra per visualizzare le osservazioni e previsioni meteorologiche.

Per cambiare la mappa : fare clic sui pulsanti verdi con una croce nera per ingrandire, il pulsante verde con un trattino per diminuire, o sulla freccia verde per le mappe adiacenti.


METAR-TAF: